sensor_id;sensor_type;location;lat;lon;timestamp;temperature;humidity
47590;DHT22;33316;52.298;9.056;2022-09-09T00:00:13;17.70;77.30
47590;DHT22;33316;52.298;9.056;2022-09-09T00:02:42;17.70;77.30
47590;DHT22;33316;52.298;9.056;2022-09-09T00:05:31;17.60;77.20
47590;DHT22;33316;52.298;9.056;2022-09-09T00:07:59;17.70;77.30
47590;DHT22;33316;52.298;9.056;2022-09-09T00:10:38;17.60;77.30
47590;DHT22;33316;52.298;9.056;2022-09-09T00:13:22;17.60;77.20
47590;DHT22;33316;52.298;9.056;2022-09-09T00:18:47;17.60;77.20
47590;DHT22;33316;52.298;9.056;2022-09-09T00:21:12;17.50;77.20
47590;DHT22;33316;52.298;9.056;2022-09-09T00:24:04;17.50;77.10
47590;DHT22;33316;52.298;9.056;2022-09-09T00:26:35;17.50;77.10
47590;DHT22;33316;52.298;9.056;2022-09-09T00:31:30;17.50;77.00
47590;DHT22;33316;52.298;9.056;2022-09-09T00:34:00;17.50;77.80
47590;DHT22;33316;52.298;9.056;2022-09-09T00:36:27;17.50;77.00
47590;DHT22;33316;52.298;9.056;2022-09-09T00:38:58;17.50;77.00
47590;DHT22;33316;52.298;9.056;2022-09-09T00:43:57;17.40;76.90
47590;DHT22;33316;52.298;9.056;2022-09-09T00:49:07;17.40;76.90
47590;DHT22;33316;52.298;9.056;2022-09-09T00:57:17;17.30;77.30
47590;DHT22;33316;52.298;9.056;2022-09-09T00:59:50;17.30;77.30
47590;DHT22;33316;52.298;9.056;2022-09-09T01:02:26;17.30;77.60
47590;DHT22;33316;52.298;9.056;2022-09-09T01:04:53;17.30;77.70
47590;DHT22;33316;52.298;9.056;2022-09-09T01:07:20;17.30;77.90
47590;DHT22;33316;52.298;9.056;2022-09-09T01:09:58;17.20;78.00
47590;DHT22;33316;52.298;9.056;2022-09-09T01:12:26;17.20;78.00
47590;DHT22;33316;52.298;9.056;2022-09-09T01:15:00;17.20;78.10
47590;DHT22;33316;52.298;9.056;2022-09-09T01:17:30;17.20;78.20
47590;DHT22;33316;52.298;9.056;2022-09-09T01:27:48;17.10;78.60
47590;DHT22;33316;52.298;9.056;2022-09-09T01:30:16;17.10;78.60
47590;DHT22;33316;52.298;9.056;2022-09-09T01:32:43;17.10;78.60
47590;DHT22;33316;52.298;9.056;2022-09-09T01:36:11;17.10;78.70
47590;DHT22;33316;52.298;9.056;2022-09-09T01:38:04;17.10;78.80
47590;DHT22;33316;52.298;9.056;2022-09-09T01:40:29;17.00;78.80
47590;DHT22;33316;52.298;9.056;2022-09-09T01:42:55;17.00;78.80
47590;DHT22;33316;52.298;9.056;2022-09-09T01:45:21;17.00;78.90
47590;DHT22;33316;52.298;9.056;2022-09-09T01:47:47;17.00;79.10
47590;DHT22;33316;52.298;9.056;2022-09-09T01:50:13;17.00;79.10
47590;DHT22;33316;52.298;9.056;2022-09-09T01:52:40;16.90;78.90
47590;DHT22;33316;52.298;9.056;2022-09-09T01:55:06;16.90;78.80
47590;DHT22;33316;52.298;9.056;2022-09-09T01:57:33;16.90;78.80
47590;DHT22;33316;52.298;9.056;2022-09-09T02:05:11;16.90;79.00
47590;DHT22;33316;52.298;9.056;2022-09-09T02:07:42;16.90;78.80
47590;DHT22;33316;52.298;9.056;2022-09-09T02:12:33;16.90;78.90
47590;DHT22;33316;52.298;9.056;2022-09-09T02:15:10;16.90;78.90
47590;DHT22;33316;52.298;9.056;2022-09-09T02:17:38;16.90;79.00
47590;DHT22;33316;52.298;9.056;2022-09-09T02:20:08;16.90;79.00
47590;DHT22;33316;52.298;9.056;2022-09-09T02:22:35;16.90;79.10
47590;DHT22;33316;52.298;9.056;2022-09-09T02:25:02;17.00;79.20
47590;DHT22;33316;52.298;9.056;2022-09-09T02:27:28;17.00;78.90
47590;DHT22;33316;52.298;9.056;2022-09-09T02:29:54;17.00;78.90
47590;DHT22;33316;52.298;9.056;2022-09-09T02:32:22;17.10;78.90
47590;DHT22;33316;52.298;9.056;2022-09-09T02:34:49;17.10;78.80
47590;DHT22;33316;52.298;9.056;2022-09-09T02:37:17;17.10;78.60
47590;DHT22;33316;52.298;9.056;2022-09-09T02:39:43;17.10;78.60
47590;DHT22;33316;52.298;9.056;2022-09-09T02:42:09;17.10;78.60
47590;DHT22;33316;52.298;9.056;2022-09-09T02:44:35;17.10;78.40
47590;DHT22;33316;52.298;9.056;2022-09-09T02:54:28;17.20;78.50
47590;DHT22;33316;52.298;9.056;2022-09-09T02:57:00;17.20;78.50
47590;DHT22;33316;52.298;9.056;2022-09-09T02:59:27;17.30;78.50
47590;DHT22;33316;52.298;9.056;2022-09-09T03:01:52;17.30;78.40
47590;DHT22;33316;52.298;9.056;2022-09-09T03:04:18;17.30;78.50
47590;DHT22;33316;52.298;9.056;2022-09-09T03:06:44;17.30;78.50
47590;DHT22;33316;52.298;9.056;2022-09-09T03:09:09;17.30;78.50
47590;DHT22;33316;52.298;9.056;2022-09-09T03:11:36;17.30;78.50
47590;DHT22;33316;52.298;9.056;2022-09-09T03:14:01;17.30;78.40
47590;DHT22;33316;52.298;9.056;2022-09-09T03:16:27;17.30;78.40
47590;DHT22;33316;52.298;9.056;2022-09-09T03:18:53;17.30;78.30
47590;DHT22;33316;52.298;9.056;2022-09-09T03:21:18;17.30;78.20
47590;DHT22;33316;52.298;9.056;2022-09-09T03:23:44;17.30;78.20
47590;DHT22;33316;52.298;9.056;2022-09-09T03:26:10;17.30;78.10
47590;DHT22;33316;52.298;9.056;2022-09-09T03:28:35;17.30;78.00
47590;DHT22;33316;52.298;9.056;2022-09-09T03:31:01;17.30;78.00
47590;DHT22;33316;52.298;9.056;2022-09-09T03:33:27;17.30;78.00
47590;DHT22;33316;52.298;9.056;2022-09-09T03:35:53;17.30;77.80
47590;DHT22;33316;52.298;9.056;2022-09-09T03:38:24;17.30;77.80
47590;DHT22;33316;52.298;9.056;2022-09-09T03:40:50;17.30;77.70
47590;DHT22;33316;52.298;9.056;2022-09-09T03:43:16;17.30;77.70
47590;DHT22;33316;52.298;9.056;2022-09-09T03:45:45;17.30;77.60
47590;DHT22;33316;52.298;9.056;2022-09-09T03:48:12;17.30;77.80
47590;DHT22;33316;52.298;9.056;2022-09-09T03:50:38;17.30;77.70
47590;DHT22;33316;52.298;9.056;2022-09-09T03:53:03;17.30;77.60
47590;DHT22;33316;52.298;9.056;2022-09-09T03:55:31;17.30;77.70
47590;DHT22;33316;52.298;9.056;2022-09-09T03:57:57;17.30;77.70
47590;DHT22;33316;52.298;9.056;2022-09-09T04:00:23;17.30;77.80
47590;DHT22;33316;52.298;9.056;2022-09-09T04:02:49;17.30;77.80
47590;DHT22;33316;52.298;9.056;2022-09-09T04:05:15;17.30;77.80
47590;DHT22;33316;52.298;9.056;2022-09-09T04:07:40;17.30;78.00
47590;DHT22;33316;52.298;9.056;2022-09-09T04:10:06;17.30;78.00
47590;DHT22;33316;52.298;9.056;2022-09-09T04:12:32;17.30;78.00
47590;DHT22;33316;52.298;9.056;2022-09-09T04:14:58;17.30;78.10
47590;DHT22;33316;52.298;9.056;2022-09-09T04:17:23;17.30;78.20
47590;DHT22;33316;52.298;9.056;2022-09-09T04:19:49;17.30;78.20
47590;DHT22;33316;52.298;9.056;2022-09-09T04:22:14;17.30;78.30
47590;DHT22;33316;52.298;9.056;2022-09-09T04:24:41;17.20;78.30
47590;DHT22;33316;52.298;9.056;2022-09-09T04:27:06;17.20;78.40
47590;DHT22;33316;52.298;9.056;2022-09-09T04:29:32;17.30;78.50
47590;DHT22;33316;52.298;9.056;2022-09-09T04:31:57;17.20;78.50
47590;DHT22;33316;52.298;9.056;2022-09-09T04:34:22;17.20;78.50
47590;DHT22;33316;52.298;9.056;2022-09-09T04:36:48;17.20;78.60
47590;DHT22;33316;52.298;9.056;2022-09-09T04:39:14;17.30;78.70
47590;DHT22;33316;52.298;9.056;2022-09-09T04:41:39;17.20;78.70
47590;DHT22;33316;52.298;9.056;2022-09-09T04:44:05;17.20;78.60
47590;DHT22;33316;52.298;9.056;2022-09-09T04:46:31;17.20;78.80
47590;DHT22;33316;52.298;9.056;2022-09-09T04:48:56;17.20;78.80
47590;DHT22;33316;52.298;9.056;2022-09-09T04:51:22;17.20;78.90
47590;DHT22;33316;52.298;9.056;2022-09-09T04:53:47;17.20;78.90
47590;DHT22;33316;52.298;9.056;2022-09-09T04:56:14;17.20;78.90
47590;DHT22;33316;52.298;9.056;2022-09-09T04:58:40;17.20;79.00
47590;DHT22;33316;52.298;9.056;2022-09-09T05:01:16;17.20;78.90
47590;DHT22;33316;52.298;9.056;2022-09-09T05:03:46;17.20;78.90
47590;DHT22;33316;52.298;9.056;2022-09-09T05:06:13;17.20;79.00
47590;DHT22;33316;52.298;9.056;2022-09-09T05:08:39;17.20;79.00
47590;DHT22;33316;52.298;9.056;2022-09-09T05:13:40;17.20;78.90
47590;DHT22;33316;52.298;9.056;2022-09-09T05:16:06;17.30;79.10
47590;DHT22;33316;52.298;9.056;2022-09-09T05:18:31;17.20;79.10
47590;DHT22;33316;52.298;9.056;2022-09-09T05:21:00;17.30;79.10
47590;DHT22;33316;52.298;9.056;2022-09-09T05:23:25;17.30;79.10
47590;DHT22;33316;52.298;9.056;2022-09-09T05:25:55;17.30;79.10
47590;DHT22;33316;52.298;9.056;2022-09-09T05:28:20;17.30;79.20
47590;DHT22;33316;52.298;9.056;2022-09-09T05:30:46;17.30;79.20
47590;DHT22;33316;52.298;9.056;2022-09-09T05:33:11;17.30;79.20
47590;DHT22;33316;52.298;9.056;2022-09-09T05:35:37;17.30;79.30
47590;DHT22;33316;52.298;9.056;2022-09-09T05:38:03;17.30;79.20
47590;DHT22;33316;52.298;9.056;2022-09-09T05:40:29;17.30;79.30
47590;DHT22;33316;52.298;9.056;2022-09-09T05:42:59;17.30;79.20
47590;DHT22;33316;52.298;9.056;2022-09-09T05:45:24;17.40;79.40
47590;DHT22;33316;52.298;9.056;2022-09-09T05:47:51;17.40;79.50
47590;DHT22;33316;52.298;9.056;2022-09-09T05:50:18;17.40;79.80
47590;DHT22;33316;52.298;9.056;2022-09-09T05:52:43;17.40;80.00
47590;DHT22;33316;52.298;9.056;2022-09-09T05:55:09;17.40;80.00
47590;DHT22;33316;52.298;9.056;2022-09-09T05:57:35;17.30;80.10
47590;DHT22;33316;52.298;9.056;2022-09-09T06:00:00;17.30;80.10
47590;DHT22;33316;52.298;9.056;2022-09-09T06:02:26;17.40;80.20
47590;DHT22;33316;52.298;9.056;2022-09-09T06:04:51;17.30;80.60
47590;DHT22;33316;52.298;9.056;2022-09-09T06:07:17;17.40;80.80
47590;DHT22;33316;52.298;9.056;2022-09-09T06:09:42;17.30;80.90
47590;DHT22;33316;52.298;9.056;2022-09-09T06:12:08;17.30;81.00
47590;DHT22;33316;52.298;9.056;2022-09-09T06:14:34;17.30;81.00
47590;DHT22;33316;52.298;9.056;2022-09-09T06:16:59;17.30;80.90
47590;DHT22;33316;52.298;9.056;2022-09-09T06:19:25;17.30;80.90
47590;DHT22;33316;52.298;9.056;2022-09-09T06:21:52;17.30;80.80
47590;DHT22;33316;52.298;9.056;2022-09-09T06:24:17;17.30;80.90
47590;DHT22;33316;52.298;9.056;2022-09-09T06:26:44;17.40;81.00
47590;DHT22;33316;52.298;9.056;2022-09-09T06:29:10;17.40;81.00
47590;DHT22;33316;52.298;9.056;2022-09-09T06:31:36;17.40;81.00
47590;DHT22;33316;52.298;9.056;2022-09-09T06:34:03;17.40;80.90
47590;DHT22;33316;52.298;9.056;2022-09-09T06:36:30;17.50;81.00
47590;DHT22;33316;52.298;9.056;2022-09-09T06:38:56;17.50;81.10
47590;DHT22;33316;52.298;9.056;2022-09-09T06:41:22;17.50;81.10
47590;DHT22;33316;52.298;9.056;2022-09-09T06:43:48;17.60;81.10
47590;DHT22;33316;52.298;9.056;2022-09-09T06:46:18;17.60;81.10
47590;DHT22;33316;52.298;9.056;2022-09-09T06:48:44;17.70;81.10
47590;DHT22;33316;52.298;9.056;2022-09-09T06:53:37;17.80;81.10
47590;DHT22;33316;52.298;9.056;2022-09-09T06:58:50;18.20;80.80
47590;DHT22;33316;52.298;9.056;2022-09-09T07:01:21;18.40;80.50
47590;DHT22;33316;52.298;9.056;2022-09-09T07:03:48;18.60;80.10
47590;DHT22;33316;52.298;9.056;2022-09-09T07:06:16;18.80;79.70
47590;DHT22;33316;52.298;9.056;2022-09-09T07:08:54;19.00;79.20
47590;DHT22;33316;52.298;9.056;2022-09-09T07:11:21;19.10;78.40
47590;DHT22;33316;52.298;9.056;2022-09-09T07:13:47;19.30;77.80
47590;DHT22;33316;52.298;9.056;2022-09-09T07:16:14;19.40;77.60
47590;DHT22;33316;52.298;9.056;2022-09-09T07:18:39;19.50;77.10
47590;DHT22;33316;52.298;9.056;2022-09-09T07:21:05;19.60;76.70
47590;DHT22;33316;52.298;9.056;2022-09-09T07:23:32;19.70;76.40
47590;DHT22;33316;52.298;9.056;2022-09-09T07:25:58;19.90;76.00
47590;DHT22;33316;52.298;9.056;2022-09-09T07:28:23;20.00;75.40
47590;DHT22;33316;52.298;9.056;2022-09-09T07:30:56;20.10;75.10
47590;DHT22;33316;52.298;9.056;2022-09-09T07:33:22;20.10;74.60
47590;DHT22;33316;52.298;9.056;2022-09-09T07:35:48;20.10;74.40
47590;DHT22;33316;52.298;9.056;2022-09-09T07:38:14;20.00;74.10
47590;DHT22;33316;52.298;9.056;2022-09-09T07:40:40;20.00;73.90
47590;DHT22;33316;52.298;9.056;2022-09-09T07:43:05;19.90;73.90
47590;DHT22;33316;52.298;9.056;2022-09-09T07:45:31;19.90;74.00
47590;DHT22;33316;52.298;9.056;2022-09-09T07:47:58;19.80;74.10
47590;DHT22;33316;52.298;9.056;2022-09-09T07:50:24;19.80;74.30
47590;DHT22;33316;52.298;9.056;2022-09-09T07:52:50;19.80;74.50
47590;DHT22;33316;52.298;9.056;2022-09-09T07:55:16;19.70;74.30
47590;DHT22;33316;52.298;9.056;2022-09-09T07:57:41;19.70;74.40
47590;DHT22;33316;52.298;9.056;2022-09-09T08:00:07;19.70;74.40
47590;DHT22;33316;52.298;9.056;2022-09-09T08:02:32;19.70;74.40
47590;DHT22;33316;52.298;9.056;2022-09-09T08:04:58;19.80;74.40
47590;DHT22;33316;52.298;9.056;2022-09-09T08:07:23;19.80;74.60
47590;DHT22;33316;52.298;9.056;2022-09-09T08:09:49;19.80;74.70
47590;DHT22;33316;52.298;9.056;2022-09-09T08:12:15;19.80;74.60
47590;DHT22;33316;52.298;9.056;2022-09-09T08:14:40;19.80;74.60
47590;DHT22;33316;52.298;9.056;2022-09-09T08:17:06;19.80;74.30
47590;DHT22;33316;52.298;9.056;2022-09-09T08:19:31;19.80;74.20
47590;DHT22;33316;52.298;9.056;2022-09-09T08:22:01;19.80;73.80
47590;DHT22;33316;52.298;9.056;2022-09-09T08:24:27;19.90;73.90
47590;DHT22;33316;52.298;9.056;2022-09-09T08:26:52;19.90;74.00
47590;DHT22;33316;52.298;9.056;2022-09-09T08:29:18;19.90;73.90
47590;DHT22;33316;52.298;9.056;2022-09-09T08:31:45;19.90;73.80
47590;DHT22;33316;52.298;9.056;2022-09-09T08:34:12;19.90;73.80
47590;DHT22;33316;52.298;9.056;2022-09-09T08:36:38;20.00;74.00
47590;DHT22;33316;52.298;9.056;2022-09-09T08:39:05;20.00;74.00
47590;DHT22;33316;52.298;9.056;2022-09-09T08:46:54;20.10;73.80
47590;DHT22;33316;52.298;9.056;2022-09-09T08:52:02;20.10;73.60
47590;DHT22;33316;52.298;9.056;2022-09-09T08:54:33;20.10;73.60
47590;DHT22;33316;52.298;9.056;2022-09-09T08:56:59;20.10;73.60
47590;DHT22;33316;52.298;9.056;2022-09-09T08:59:25;20.20;73.80
47590;DHT22;33316;52.298;9.056;2022-09-09T09:01:53;20.20;73.60
47590;DHT22;33316;52.298;9.056;2022-09-09T09:04:37;20.20;73.40
47590;DHT22;33316;52.298;9.056;2022-09-09T09:07:21;20.20;73.10
47590;DHT22;33316;52.298;9.056;2022-09-09T09:12:18;20.20;73.10
47590;DHT22;33316;52.298;9.056;2022-09-09T09:14:45;20.20;72.80
47590;DHT22;33316;52.298;9.056;2022-09-09T09:17:12;20.20;72.80
47590;DHT22;33316;52.298;9.056;2022-09-09T09:19:40;20.20;72.70
47590;DHT22;33316;52.298;9.056;2022-09-09T09:27:14;20.20;73.00
47590;DHT22;33316;52.298;9.056;2022-09-09T09:29:40;20.30;72.70
47590;DHT22;33316;52.298;9.056;2022-09-09T09:32:07;20.40;72.80
47590;DHT22;33316;52.298;9.056;2022-09-09T09:34:37;20.40;72.60
47590;DHT22;33316;52.298;9.056;2022-09-09T09:37:07;20.50;72.50
47590;DHT22;33316;52.298;9.056;2022-09-09T09:39:37;20.60;72.50
47590;DHT22;33316;52.298;9.056;2022-09-09T09:42:22;20.60;72.40
47590;DHT22;33316;52.298;9.056;2022-09-09T09:44:48;20.70;72.20
47590;DHT22;33316;52.298;9.056;2022-09-09T09:47:15;20.80;72.10
47590;DHT22;33316;52.298;9.056;2022-09-09T09:49:51;20.80;71.70
47590;DHT22;33316;52.298;9.056;2022-09-09T09:52:17;20.90;71.70
47590;DHT22;33316;52.298;9.056;2022-09-09T09:54:46;20.80;70.90
47590;DHT22;33316;52.298;9.056;2022-09-09T09:57:12;20.80;71.00
47590;DHT22;33316;52.298;9.056;2022-09-09T09:59:38;20.80;71.20
47590;DHT22;33316;52.298;9.056;2022-09-09T10:02:20;20.80;71.20
47590;DHT22;33316;52.298;9.056;2022-09-09T10:05:00;20.80;71.40
47590;DHT22;33316;52.298;9.056;2022-09-09T10:07:26;20.80;72.80
47590;DHT22;33316;52.298;9.056;2022-09-09T10:09:55;20.80;73.30
47590;DHT22;33316;52.298;9.056;2022-09-09T10:15:00;20.80;73.20
47590;DHT22;33316;52.298;9.056;2022-09-09T10:17:31;20.80;73.30
47590;DHT22;33316;52.298;9.056;2022-09-09T10:22:39;20.80;73.80
47590;DHT22;33316;52.298;9.056;2022-09-09T10:33:18;21.00;74.50
47590;DHT22;33316;52.298;9.056;2022-09-09T10:35:38;21.00;74.30
47590;DHT22;33316;52.298;9.056;2022-09-09T10:41:09;21.30;74.30
47590;DHT22;33316;52.298;9.056;2022-09-09T10:43:39;21.30;73.20
47590;DHT22;33316;52.298;9.056;2022-09-09T10:51:17;21.40;73.00
47590;DHT22;33316;52.298;9.056;2022-09-09T10:56:29;21.40;71.80
47590;DHT22;33316;52.298;9.056;2022-09-09T10:59:16;21.40;70.80
47590;DHT22;33316;52.298;9.056;2022-09-09T11:01:43;21.40;70.10
47590;DHT22;33316;52.298;9.056;2022-09-09T11:04:11;21.30;69.50
47590;DHT22;33316;52.298;9.056;2022-09-09T11:06:41;21.30;69.00
47590;DHT22;33316;52.298;9.056;2022-09-09T11:09:15;21.30;68.70
47590;DHT22;33316;52.298;9.056;2022-09-09T11:11:45;21.30;68.70
47590;DHT22;33316;52.298;9.056;2022-09-09T11:14:15;21.30;68.80
47590;DHT22;33316;52.298;9.056;2022-09-09T11:16:50;21.30;68.70
47590;DHT22;33316;52.298;9.056;2022-09-09T11:19:18;21.30;68.70
47590;DHT22;33316;52.298;9.056;2022-09-09T11:21:47;21.40;70.70
47590;DHT22;33316;52.298;9.056;2022-09-09T11:32:21;21.30;69.00
47590;DHT22;33316;52.298;9.056;2022-09-09T11:34:51;21.40;68.50
47590;DHT22;33316;52.298;9.056;2022-09-09T11:37:27;21.40;66.70
47590;DHT22;33316;52.298;9.056;2022-09-09T11:42:33;21.50;66.40
47590;DHT22;33316;52.298;9.056;2022-09-09T11:45:08;21.50;65.90
47590;DHT22;33316;52.298;9.056;2022-09-09T11:47:33;21.60;66.00
47590;DHT22;33316;52.298;9.056;2022-09-09T11:52:44;21.70;65.20
47590;DHT22;33316;52.298;9.056;2022-09-09T11:55:29;21.80;64.90
47590;DHT22;33316;52.298;9.056;2022-09-09T11:58:19;21.90;65.10
47590;DHT22;33316;52.298;9.056;2022-09-09T12:00:45;21.90;63.90
47590;DHT22;33316;52.298;9.056;2022-09-09T12:05:55;22.00;65.10
47590;DHT22;33316;52.298;9.056;2022-09-09T12:08:24;22.00;64.70
47590;DHT22;33316;52.298;9.056;2022-09-09T12:10:55;22.00;65.20
47590;DHT22;33316;52.298;9.056;2022-09-09T12:13:22;22.10;65.10
47590;DHT22;33316;52.298;9.056;2022-09-09T12:15:49;22.20;64.70
47590;DHT22;33316;52.298;9.056;2022-09-09T12:18:21;22.20;64.50
47590;DHT22;33316;52.298;9.056;2022-09-09T12:21:00;22.20;64.00
47590;DHT22;33316;52.298;9.056;2022-09-09T12:23:30;22.40;63.30
47590;DHT22;33316;52.298;9.056;2022-09-09T12:26:03;22.40;62.10
47590;DHT22;33316;52.298;9.056;2022-09-09T12:31:33;22.40;61.40
47590;DHT22;33316;52.298;9.056;2022-09-09T12:34:10;22.40;61.50
47590;DHT22;33316;52.298;9.056;2022-09-09T12:36:36;22.50;61.00
47590;DHT22;33316;52.298;9.056;2022-09-09T12:39:10;22.50;60.80
47590;DHT22;33316;52.298;9.056;2022-09-09T12:41:50;22.50;60.30
47590;DHT22;33316;52.298;9.056;2022-09-09T12:44:15;22.60;60.10
47590;DHT22;33316;52.298;9.056;2022-09-09T12:46:41;22.60;60.30
47590;DHT22;33316;52.298;9.056;2022-09-09T12:51:53;22.60;59.40
47590;DHT22;33316;52.298;9.056;2022-09-09T12:54:18;22.60;59.50
47590;DHT22;33316;52.298;9.056;2022-09-09T12:56:47;22.60;60.20
47590;DHT22;33316;52.298;9.056;2022-09-09T12:59:24;22.70;60.40
47590;DHT22;33316;52.298;9.056;2022-09-09T13:01:56;22.80;60.00
47590;DHT22;33316;52.298;9.056;2022-09-09T13:04:22;22.90;60.10
47590;DHT22;33316;52.298;9.056;2022-09-09T13:06:48;22.90;59.70
47590;DHT22;33316;52.298;9.056;2022-09-09T13:09:14;22.90;59.00
47590;DHT22;33316;52.298;9.056;2022-09-09T13:11:50;23.00;58.90
47590;DHT22;33316;52.298;9.056;2022-09-09T13:14:35;23.00;58.70
47590;DHT22;33316;52.298;9.056;2022-09-09T13:17:06;23.10;59.40
47590;DHT22;33316;52.298;9.056;2022-09-09T13:19:33;23.10;59.70
47590;DHT22;33316;52.298;9.056;2022-09-09T13:21:59;23.30;59.80
47590;DHT22;33316;52.298;9.056;2022-09-09T13:24:30;23.20;59.50
47590;DHT22;33316;52.298;9.056;2022-09-09T13:26:57;23.20;59.40
47590;DHT22;33316;52.298;9.056;2022-09-09T13:29:22;23.20;59.00
47590;DHT22;33316;52.298;9.056;2022-09-09T13:31:48;23.20;58.70
47590;DHT22;33316;52.298;9.056;2022-09-09T13:34:34;23.20;59.00
47590;DHT22;33316;52.298;9.056;2022-09-09T13:37:04;23.20;58.90
47590;DHT22;33316;52.298;9.056;2022-09-09T13:39:32;23.20;58.90
47590;DHT22;33316;52.298;9.056;2022-09-09T13:41:58;23.20;58.80
47590;DHT22;33316;52.298;9.056;2022-09-09T13:44:25;23.20;58.30
47590;DHT22;33316;52.298;9.056;2022-09-09T13:47:02;23.20;57.30
47590;DHT22;33316;52.298;9.056;2022-09-09T13:49:29;23.10;56.50
47590;DHT22;33316;52.298;9.056;2022-09-09T13:54:33;23.00;57.70
47590;DHT22;33316;52.298;9.056;2022-09-09T13:56:58;23.10;57.10
47590;DHT22;33316;52.298;9.056;2022-09-09T13:59:24;22.90;57.00
47590;DHT22;33316;52.298;9.056;2022-09-09T14:01:51;22.90;56.80
47590;DHT22;33316;52.298;9.056;2022-09-09T14:04:17;22.90;56.90
47590;DHT22;33316;52.298;9.056;2022-09-09T14:06:43;22.90;57.00
47590;DHT22;33316;52.298;9.056;2022-09-09T14:09:13;22.90;57.10
47590;DHT22;33316;52.298;9.056;2022-09-09T14:11:38;22.90;57.20
47590;DHT22;33316;52.298;9.056;2022-09-09T14:14:05;22.90;57.50
47590;DHT22;33316;52.298;9.056;2022-09-09T14:16:31;22.90;57.60
47590;DHT22;33316;52.298;9.056;2022-09-09T14:18:56;22.90;57.50
47590;DHT22;33316;52.298;9.056;2022-09-09T14:21:22;22.90;57.70
47590;DHT22;33316;52.298;9.056;2022-09-09T14:23:48;22.90;57.50
47590;DHT22;33316;52.298;9.056;2022-09-09T14:26:14;22.90;57.00
47590;DHT22;33316;52.298;9.056;2022-09-09T14:28:39;22.80;57.00
47590;DHT22;33316;52.298;9.056;2022-09-09T14:31:05;22.80;56.70
47590;DHT22;33316;52.298;9.056;2022-09-09T14:33:31;22.90;56.70
47590;DHT22;33316;52.298;9.056;2022-09-09T14:35:57;22.90;57.00
47590;DHT22;33316;52.298;9.056;2022-09-09T14:38:23;22.90;57.00
47590;DHT22;33316;52.298;9.056;2022-09-09T14:40:49;22.90;57.30
47590;DHT22;33316;52.298;9.056;2022-09-09T14:43:15;22.90;57.10
47590;DHT22;33316;52.298;9.056;2022-09-09T14:45:40;22.90;57.20
47590;DHT22;33316;52.298;9.056;2022-09-09T14:48:05;23.00;57.10
47590;DHT22;33316;52.298;9.056;2022-09-09T14:50:31;23.10;54.70
47590;DHT22;33316;52.298;9.056;2022-09-09T14:52:56;23.10;54.50
47590;DHT22;33316;52.298;9.056;2022-09-09T14:55:22;23.10;55.20
47590;DHT22;33316;52.298;9.056;2022-09-09T14:57:47;23.20;55.50
47590;DHT22;33316;52.298;9.056;2022-09-09T15:00:13;23.20;54.90
47590;DHT22;33316;52.298;9.056;2022-09-09T15:02:39;23.20;55.00
47590;DHT22;33316;52.298;9.056;2022-09-09T15:05:05;23.20;55.00
47590;DHT22;33316;52.298;9.056;2022-09-09T15:07:30;23.20;54.70
47590;DHT22;33316;52.298;9.056;2022-09-09T15:09:57;23.20;54.90
47590;DHT22;33316;52.298;9.056;2022-09-09T15:12:22;23.20;55.10
47590;DHT22;33316;52.298;9.056;2022-09-09T15:14:48;23.20;54.70
47590;DHT22;33316;52.298;9.056;2022-09-09T15:17:15;23.30;55.10
47590;DHT22;33316;52.298;9.056;2022-09-09T15:19:41;23.30;55.10
47590;DHT22;33316;52.298;9.056;2022-09-09T15:22:07;23.30;55.10
47590;DHT22;33316;52.298;9.056;2022-09-09T15:24:33;23.30;54.70
47590;DHT22;33316;52.298;9.056;2022-09-09T15:26:58;23.30;55.00
47590;DHT22;33316;52.298;9.056;2022-09-09T15:29:24;23.40;54.70
47590;DHT22;33316;52.298;9.056;2022-09-09T15:31:50;23.30;54.50
47590;DHT22;33316;52.298;9.056;2022-09-09T15:34:15;23.30;55.00
47590;DHT22;33316;52.298;9.056;2022-09-09T15:36:42;23.30;55.10
47590;DHT22;33316;52.298;9.056;2022-09-09T15:39:09;23.30;55.30
47590;DHT22;33316;52.298;9.056;2022-09-09T15:41:38;23.30;55.40
47590;DHT22;33316;52.298;9.056;2022-09-09T15:44:04;23.30;55.60
47590;DHT22;33316;52.298;9.056;2022-09-09T15:49:14;23.20;55.60
47590;DHT22;33316;52.298;9.056;2022-09-09T15:51:44;23.20;55.60
47590;DHT22;33316;52.298;9.056;2022-09-09T15:54:13;23.30;55.70
47590;DHT22;33316;52.298;9.056;2022-09-09T15:56:39;23.20;55.60
47590;DHT22;33316;52.298;9.056;2022-09-09T15:59:05;23.10;55.90
47590;DHT22;33316;52.298;9.056;2022-09-09T16:01:31;23.10;56.10
47590;DHT22;33316;52.298;9.056;2022-09-09T16:03:57;23.00;56.20
47590;DHT22;33316;52.298;9.056;2022-09-09T16:06:23;23.00;56.40
47590;DHT22;33316;52.298;9.056;2022-09-09T16:08:50;23.00;56.40
47590;DHT22;33316;52.298;9.056;2022-09-09T16:11:17;22.90;56.30
47590;DHT22;33316;52.298;9.056;2022-09-09T16:13:45;22.90;56.50
47590;DHT22;33316;52.298;9.056;2022-09-09T16:16:11;22.90;56.50
47590;DHT22;33316;52.298;9.056;2022-09-09T16:18:46;22.80;56.80
47590;DHT22;33316;52.298;9.056;2022-09-09T16:21:14;22.80;56.80
47590;DHT22;33316;52.298;9.056;2022-09-09T16:23:39;22.80;56.70
47590;DHT22;33316;52.298;9.056;2022-09-09T16:26:05;22.70;57.00
47590;DHT22;33316;52.298;9.056;2022-09-09T16:28:30;22.80;57.40
47590;DHT22;33316;52.298;9.056;2022-09-09T16:30:56;22.90;58.10
47590;DHT22;33316;52.298;9.056;2022-09-09T16:33:23;22.80;58.50
47590;DHT22;33316;52.298;9.056;2022-09-09T16:35:48;22.80;58.60
47590;DHT22;33316;52.298;9.056;2022-09-09T16:38:14;22.90;58.60
47590;DHT22;33316;52.298;9.056;2022-09-09T16:40:40;22.80;58.80
47590;DHT22;33316;52.298;9.056;2022-09-09T16:43:06;22.80;58.80
47590;DHT22;33316;52.298;9.056;2022-09-09T16:45:32;22.80;58.60
47590;DHT22;33316;52.298;9.056;2022-09-09T16:47:58;22.80;58.50
47590;DHT22;33316;52.298;9.056;2022-09-09T16:50:24;22.80;58.50
47590;DHT22;33316;52.298;9.056;2022-09-09T16:52:50;22.80;58.30
47590;DHT22;33316;52.298;9.056;2022-09-09T16:55:16;22.80;58.40
47590;DHT22;33316;52.298;9.056;2022-09-09T16:57:41;22.70;58.30
47590;DHT22;33316;52.298;9.056;2022-09-09T17:00:07;22.70;58.20
47590;DHT22;33316;52.298;9.056;2022-09-09T17:02:32;22.70;58.30
47590;DHT22;33316;52.298;9.056;2022-09-09T17:04:58;22.70;58.50
47590;DHT22;33316;52.298;9.056;2022-09-09T17:07:24;22.70;58.50
47590;DHT22;33316;52.298;9.056;2022-09-09T17:09:50;22.60;58.80
47590;DHT22;33316;52.298;9.056;2022-09-09T17:12:15;22.60;59.10
47590;DHT22;33316;52.298;9.056;2022-09-09T17:14:41;22.60;59.30
47590;DHT22;33316;52.298;9.056;2022-09-09T17:17:07;22.60;59.40
47590;DHT22;33316;52.298;9.056;2022-09-09T17:19:32;22.60;59.60
47590;DHT22;33316;52.298;9.056;2022-09-09T17:21:58;22.50;59.80
47590;DHT22;33316;52.298;9.056;2022-09-09T17:24:28;22.40;60.00
47590;DHT22;33316;52.298;9.056;2022-09-09T17:26:54;22.40;60.20